Time;durP1;ratioP1;P1;durP2;ratioP2;P2;SDS_P1;SDS_P2;PMS_P1;PMS_P2;Temp;Humidity;BMP_temperature;BMP_pressure;BME280_temperature;BME280_humidity;BME280_pressure;Samples;Min_cycle;Max_cycle;Signal;HPM_P1;HPM_P2
2021/07/31 00:01:47;;;;;;;;;;;;;;;;;;5021270;28;19925;-93
2021/07/31 00:04:16;;;;;;;;;;;;;;;;;;5024752;28;19925;-94
2021/07/31 00:06:44;;;;;;;;;;;;;;;;;;5024318;28;19929;-94
2021/07/31 00:09:13;;;;;;;;;;;;;;;;;;5025105;28;19925;-93
2021/07/31 00:11:41;;;;;;;;;;;;;;;;;;5025011;28;20297;-92
2021/07/31 00:14:10;;;;;;;;;;;;;;;;;;5021002;28;19925;-93
2021/07/31 00:16:38;;;;;;;;;;;;;;;;;;5023575;28;19926;-91
2021/07/31 00:19:10;;;;;;;;;;;;;;;;;;5023628;28;22112;-93
2021/07/31 00:21:38;;;;;;;;;;;;;;;;;;5023391;28;19932;-93
2021/07/31 00:24:07;;;;;;;;;;;;;;;;;;5024267;28;19925;-93
2021/07/31 00:26:35;;;;;;;;;;;;;;;;;;5024343;28;19925;-93
2021/07/31 00:29:04;;;;;;;;;;;;;;;;;;5025321;28;19925;-93
2021/07/31 00:31:32;;;;;;;;;;;;;;;;;;5031383;28;20388;-92
2021/07/31 00:34:03;;;;;;;;;;;;;;;;;;5023774;28;19913;-92
2021/07/31 00:36:33;;;;;;;;;;;;;;;;;;5023013;28;19925;-92
2021/07/31 00:39:05;;;;;;;;;;;;;;;;;;5020701;28;19926;-93
2021/07/31 00:41:34;;;;;;;;;;;;;;;;;;5019899;28;20425;-92
2021/07/31 00:44:02;;;;;;;;;;;;;;;;;;5021873;28;19925;-94
2021/07/31 00:46:31;;;;;;;;;;;;;;;;;;5023167;28;19933;-93
2021/07/31 00:49:00;;;;;;;;;;;;;;;;;;5020422;28;19932;-93
2021/07/31 00:51:30;;;;;;;;;;;;;;;;;;5018701;28;19925;-93
2021/07/31 00:54:00;;;;;;;;;;;;;;;;;;5021790;28;19925;-93
2021/07/31 00:56:29;;;;;;;;;;;;;;;;;;5022886;28;19933;-93
2021/07/31 00:58:57;;;;;;;;;;;;;;;;;;5021498;28;19925;-94
2021/07/31 01:01:28;;;;;;;;;;;;;;;;;;5021197;28;19925;-92
2021/07/31 01:03:57;;;;;;;;;;;;;;;;;;5020165;28;19925;-93
2021/07/31 01:06:26;;;;;;;;;;;;;;;;;;5021957;28;19929;-94
2021/07/31 01:08:54;;;;;;;;;;;;;;;;;;5021156;28;19925;-92
2021/07/31 01:11:25;;;;;;;;;;;;;;;;;;5019849;28;19925;-93
2021/07/31 01:13:58;;;;;;;;;;;;;;;;;;5022398;28;19940;-94
2021/07/31 01:16:28;;;;;;;;;;;;;;;;;;5023381;28;19932;-93
2021/07/31 01:18:56;;;;;;;;;;;;;;;;;;5022262;28;19932;-93
2021/07/31 01:21:34;;;;;;;;;;;;;;;;;;5021393;28;19948;-94
2021/07/31 01:24:05;;;;;;;;;;;;;;;;;;5019831;28;19925;-93
2021/07/31 01:26:37;;;;;;;;;;;;;;;;;;5021016;28;19925;-94
2021/07/31 01:29:06;;;;;;;;;;;;;;;;;;5017436;28;20392;-92
2021/07/31 01:31:37;;;;;;;;;;;;;;;;;;5020313;28;19929;-92
2021/07/31 01:34:06;;;;;;;;;;;;;;;;;;5017250;28;19936;-92
2021/07/31 01:36:36;;;;;;;;;;;;;;;;;;5022688;28;19925;-93
2021/07/31 01:39:06;;;;;;;;;;;;;;;;;;5021687;28;19925;-92
2021/07/31 01:41:34;;;;;;;;;;;;;;;;;;5021470;28;19925;-93
2021/07/31 01:44:03;;;;;;;;;;;;;;;;;;5020614;28;19932;-91
2021/07/31 01:46:31;;;;;;;;;;;;;;;;;;5021160;28;19925;-92
2021/07/31 01:49:00;;;;;;;;;;;;;;;;;;5018701;28;19948;-94
2021/07/31 01:51:31;;;;;;;;;;;;;;;;;;5019470;28;20304;-93
2021/07/31 01:54:01;;;;;;;;;;;;;;;;;;5015903;28;19925;-92
2021/07/31 01:56:30;;;;;;;;;;;;;;;;;;4999477;28;20389;-92
2021/07/31 01:59:00;;;;;;;;;;;;;;;;;;5000203;28;19955;-92
2021/07/31 02:01:29;;;;;;;;;;;;;;;;;;5017640;28;19925;-93
2021/07/31 02:04:01;;;;;;;;;;;;;;;;;;5003906;28;20309;-92
2021/07/31 02:06:29;;;;;;;;;;;;;;;;;;5020582;28;19932;-94
2021/07/31 02:08:59;;;;;;;;;;;;;;;;;;5021210;28;19926;-93
2021/07/31 02:11:29;;;;;;;;;;;;;;;;;;5021767;28;20312;-93
2021/07/31 02:14:02;;;;;;;;;;;;;;;;;;5005726;28;19993;-92
2021/07/31 02:16:37;;;;;;;;;;;;;;;;;;5003777;28;19925;-93
2021/07/31 02:19:11;;;;;;;;;;;;;;;;;;5020258;28;20317;-94
2021/07/31 02:21:46;;;;;;;;;;;;;;;;;;5023206;28;19925;-93
2021/07/31 02:24:37;;;;;;;;;;;;;;;;;;5020551;28;20017;-94
2021/07/31 02:27:39;;;;;;;;;;;;;;;;;;5020821;28;20412;-92
2021/07/31 02:30:11;;;;;;;;;;;;;;;;;;5005984;28;19925;-94
2021/07/31 02:32:41;;;;;;;;;;;;;;;;;;5006159;28;19925;-93
2021/07/31 02:35:10;;;;;;;;;;;;;;;;;;5021886;28;19925;-93
2021/07/31 02:38:05;;;;;;;;;;;;;;;;;;5022609;28;19926;-92
2021/07/31 02:40:34;;;;;;;;;;;;;;;;;;5020746;28;20323;-91
2021/07/31 02:43:05;;;;;;;;;;;;;;;;;;5005648;28;20424;-93
2021/07/31 02:45:35;;;;;;;;;;;;;;;;;;5005203;28;19925;-94
2021/07/31 02:48:04;;;;;;;;;;;;;;;;;;5003019;28;19925;-92
2021/07/31 02:50:33;;;;;;;;;;;;;;;;;;5020799;28;19926;-93
2021/07/31 02:53:22;;;;;;;;;;;;;;;;;;5016780;28;19925;-92
2021/07/31 02:55:50;;;;;;;;;;;;;;;;;;5004304;28;19925;-94
2021/07/31 02:58:21;;;;;;;;;;;;;;;;;;5020512;28;19925;-93
2021/07/31 03:00:49;;;;;;;;;;;;;;;;;;5003783;28;19932;-92
2021/07/31 03:03:18;;;;;;;;;;;;;;;;;;5021317;28;19925;-93
2021/07/31 03:05:53;;;;;;;;;;;;;;;;;;5024179;28;19936;-94
2021/07/31 03:08:22;;;;;;;;;;;;;;;;;;5022796;28;19933;-94
2021/07/31 03:10:54;;;;;;;;;;;;;;;;;;5017189;28;19931;-94
2021/07/31 03:13:24;;;;;;;;;;;;;;;;;;5043313;28;19945;-94
2021/07/31 03:15:54;;;;;;;;;;;;;;;;;;5030382;28;19925;-93
2021/07/31 03:18:23;;;;;;;;;;;;;;;;;;5035344;28;19941;-94
2021/07/31 03:20:53;;;;;;;;;;;;;;;;;;5029138;28;19925;-95
2021/07/31 03:23:33;;;;;;;;;;;;;;;;;;5028726;28;19925;-95
2021/07/31 03:26:01;;;;;;;;;;;;;;;;;;5028668;28;19933;-94
2021/07/31 03:28:31;;;;;;;;;;;;;;;;;;5041858;28;19926;-94
2021/07/31 03:31:02;;;;;;;;;;;;;;;;;;5029710;28;19925;-95
2021/07/31 03:33:31;;;;;;;;;;;;;;;;;;5024222;28;19928;-94
2021/07/31 03:36:00;;;;;;;;;;;;;;;;;;5026326;28;19933;-93
2021/07/31 03:38:35;;;;;;;;;;;;;;;;;;5020904;28;19925;-93
2021/07/31 03:41:04;;;;;;;;;;;;;;;;;;5024493;28;19929;-93
2021/07/31 03:43:47;;;;;;;;;;;;;;;;;;5023487;28;19925;-91
2021/07/31 03:46:15;;;;;;;;;;;;;;;;;;5018366;28;20143;-91
2021/07/31 03:48:44;;;;;;;;;;;;;;;;;;5019071;28;20426;-90
2021/07/31 03:51:13;;;;;;;;;;;;;;;;;;5018417;28;19925;-90
2021/07/31 03:53:45;;;;;;;;;;;;;;;;;;5018628;28;19925;-92
2021/07/31 03:56:14;;;;;;;;;;;;;;;;;;5019081;28;19925;-90
2021/07/31 03:58:50;;;;;;;;;;;;;;;;;;5018429;28;20352;-92
2021/07/31 04:01:21;;;;;;;;;;;;;;;;;;5018156;28;19925;-89
2021/07/31 04:03:51;;;;;;;;;;;;;;;;;;5018139;28;19925;-89
2021/07/31 04:06:20;;;;;;;;;;;;;;;;;;5020815;28;19925;-91
2021/07/31 04:08:48;;;;;;;;;;;;;;;;;;5037189;28;19996;-91
2021/07/31 04:11:25;;;;;;;;;;;;;;;;;;5037544;28;19932;-92
2021/07/31 04:14:15;;;;;;;;;;;;;;;;;;5036729;28;20388;-94
2021/07/31 04:16:54;;;;;;;;;;;;;;;;;;5018821;28;20031;-94
2021/07/31 04:19:23;;;;;;;;;;;;;;;;;;5021143;28;19932;-93
2021/07/31 04:21:54;;;;;;;;;;;;;;;;;;5017154;28;19925;-93
2021/07/31 04:24:23;;;;;;;;;;;;;;;;;;5015890;28;19925;-91
2021/07/31 04:26:51;;;;;;;;;;;;;;;;;;5016208;28;19925;-93
2021/07/31 04:29:21;;;;;;;;;;;;;;;;;;5016396;28;19929;-91
2021/07/31 04:31:49;;;;;;;;;;;;;;;;;;5016576;28;20344;-91
2021/07/31 04:34:17;;;;;;;;;;;;;;;;;;5016454;28;19940;-93
2021/07/31 04:36:46;;;;;;;;;;;;;;;;;;5024074;28;19925;-93
2021/07/31 04:39:14;;;;;;;;;;;;;;;;;;5040879;28;19914;-91
2021/07/31 04:41:42;;;;;;;;;;;;;;;;;;5040540;28;19913;-93
2021/07/31 04:44:10;;;;;;;;;;;;;;;;;;5040574;28;19913;-91
2021/07/31 04:46:40;;;;;;;;;;;;;;;;;;5057094;28;19931;-93
2021/07/31 04:49:08;;;;;;;;;;;;;;;;;;5040713;28;19917;-93
2021/07/31 04:51:36;;;;;;;;;;;;;;;;;;5040664;28;19913;-93
2021/07/31 04:54:04;;;;;;;;;;;;;;;;;;5041101;28;19913;-94
2021/07/31 04:56:33;;;;;;;;;;;;;;;;;;5040902;28;19939;-92
2021/07/31 04:59:01;;;;;;;;;;;;;;;;;;5040750;28;19920;-93
2021/07/31 05:01:29;;;;;;;;;;;;;;;;;;5039605;28;19921;-92
2021/07/31 05:03:59;;;;;;;;;;;;;;;;;;5018296;28;19925;-93
2021/07/31 05:06:27;;;;;;;;;;;;;;;;;;4997336;28;19926;-92
2021/07/31 05:08:55;;;;;;;;;;;;;;;;;;5025849;28;20439;-90
2021/07/31 05:11:23;;;;;;;;;;;;;;;;;;5016549;28;19932;-90
2021/07/31 05:13:51;;;;;;;;;;;;;;;;;;5032823;28;19932;-92
2021/07/31 05:16:20;;;;;;;;;;;;;;;;;;5016244;28;19933;-92
2021/07/31 05:18:48;;;;;;;;;;;;;;;;;;5036659;28;19929;-93
2021/07/31 05:21:18;;;;;;;;;;;;;;;;;;5038595;28;20408;-91
2021/07/31 05:23:47;;;;;;;;;;;;;;;;;;5018608;28;19925;-92
2021/07/31 05:26:15;;;;;;;;;;;;;;;;;;5016555;28;19929;-93
2021/07/31 05:28:43;;;;;;;;;;;;;;;;;;5016194;28;19925;-93
2021/07/31 05:31:20;;;;;;;;;;;;;;;;;;5015685;28;19925;-93
2021/07/31 05:33:49;;;;;;;;;;;;;;;;;;5015831;28;19925;-91
2021/07/31 05:36:18;;;;;;;;;;;;;;;;;;5015309;28;19925;-91
2021/07/31 05:38:46;;;;;;;;;;;;;;;;;;5015440;28;19926;-91
2021/07/31 05:41:15;;;;;;;;;;;;;;;;;;5015235;28;19936;-92
2021/07/31 05:43:44;;;;;;;;;;;;;;;;;;5015559;28;19925;-92
2021/07/31 05:46:15;;;;;;;;;;;;;;;;;;5015464;28;19932;-91
2021/07/31 05:48:44;;;;;;;;;;;;;;;;;;5015176;28;19936;-92
2021/07/31 05:51:12;;;;;;;;;;;;;;;;;;5014833;28;19925;-93
2021/07/31 05:53:42;;;;;;;;;;;;;;;;;;5015980;28;19945;-93
2021/07/31 05:56:11;;;;;;;;;;;;;;;;;;5020648;28;19936;-93
2021/07/31 05:58:39;;;;;;;;;;;;;;;;;;5018144;28;19925;-92
2021/07/31 06:01:08;;;;;;;;;;;;;;;;;;5017676;28;19934;-89
2021/07/31 06:03:38;;;;;;;;;;;;;;;;;;5017865;28;19925;-91
2021/07/31 06:06:06;;;;;;;;;;;;;;;;;;5018309;28;19929;-93
2021/07/31 06:08:35;;;;;;;;;;;;;;;;;;5019623;28;19932;-94
2021/07/31 06:11:05;;;;;;;;;;;;;;;;;;5019079;28;20393;-91
2021/07/31 06:13:34;;;;;;;;;;;;;;;;;;5028002;28;19909;-89
2021/07/31 06:16:07;;;;;;;;;;;;;;;;;;5016846;28;19932;-89
2021/07/31 06:18:37;;;;;;;;;;;;;;;;;;5017478;28;19926;-90
2021/07/31 06:21:05;;;;;;;;;;;;;;;;;;5017029;28;19936;-93
2021/07/31 06:23:33;;;;;;;;;;;;;;;;;;5024037;28;19925;-92
2021/07/31 06:26:02;;;;;;;;;;;;;;;;;;5021806;28;19925;-91
2021/07/31 06:28:31;;;;;;;;;;;;;;;;;;5023040;28;20076;-92
2021/07/31 06:31:00;;;;;;;;;;;;;;;;;;5022899;28;19925;-90
2021/07/31 06:33:28;;;;;;;;;;;;;;;;;;5024944;28;19932;-92
2021/07/31 06:35:56;;;;;;;;;;;;;;;;;;5022141;28;19925;-93
2021/07/31 06:38:24;;;;;;;;;;;;;;;;;;5018520;28;19925;-93
2021/07/31 06:40:53;;;;;;;;;;;;;;;;;;4998662;28;19929;-92
2021/07/31 06:43:21;;;;;;;;;;;;;;;;;;4998878;28;19925;-89
2021/07/31 06:45:51;;;;;;;;;;;;;;;;;;5008553;28;20404;-88
2021/07/31 06:48:19;;;;;;;;;;;;;;;;;;5010269;28;19925;-92
2021/07/31 06:50:47;;;;;;;;;;;;;;;;;;5022696;28;19965;-94
2021/07/31 06:53:15;;;;;;;;;;;;;;;;;;5023845;28;19920;-95
2021/07/31 06:55:44;;;;;;;;;;;;;;;;;;5056095;28;20147;-93
2021/07/31 06:58:12;;;;;;;;;;;;;;;;;;5038744;28;19923;-95
2021/07/31 07:00:41;;;;;;;;;;;;;;;;;;5059213;28;19920;-95
2021/07/31 07:03:11;;;;;;;;;;;;;;;;;;5029702;28;19909;-96
2021/07/31 07:05:39;;;;;;;;;;;;;;;;;;5036710;28;19925;-94
2021/07/31 07:08:07;;;;;;;;;;;;;;;;;;5020265;28;19925;-92
2021/07/31 07:10:36;;;;;;;;;;;;;;;;;;5026079;28;19925;-93
2021/07/31 07:13:04;;;;;;;;;;;;;;;;;;5018048;28;20168;-92
2021/07/31 07:15:32;;;;;;;;;;;;;;;;;;5020017;28;19933;-94
2021/07/31 07:18:01;;;;;;;;;;;;;;;;;;5017514;28;20304;-90
2021/07/31 07:20:30;;;;;;;;;;;;;;;;;;5033257;28;19925;-91
2021/07/31 07:22:59;;;;;;;;;;;;;;;;;;5017917;28;19925;-92
2021/07/31 07:25:27;;;;;;;;;;;;;;;;;;5017434;28;19929;-93
2021/07/31 07:27:56;;;;;;;;;;;;;;;;;;5019087;28;19924;-92
2021/07/31 07:30:28;;;;;;;;;;;;;;;;;;5019050;28;19936;-92
2021/07/31 07:32:56;;;;;;;;;;;;;;;;;;5023988;28;20020;-94
2021/07/31 07:35:24;;;;;;;;;;;;;;;;;;5027039;28;19926;-94
2021/07/31 07:37:54;;;;;;;;;;;;;;;;;;5027298;28;19933;-93
2021/07/31 07:40:23;;;;;;;;;;;;;;;;;;5019950;28;19925;-94
2021/07/31 07:42:51;;;;;;;;;;;;;;;;;;5033923;28;19929;-93
2021/07/31 07:45:22;;;;;;;;;;;;;;;;;;5031608;28;19932;-94
2021/07/31 07:47:51;;;;;;;;;;;;;;;;;;5040787;28;19909;-93
2021/07/31 07:50:19;;;;;;;;;;;;;;;;;;5060915;28;19913;-94
2021/07/31 07:52:47;;;;;;;;;;;;;;;;;;5035964;28;19915;-95
2021/07/31 07:55:17;;;;;;;;;;;;;;;;;;5035717;28;19926;-94
2021/07/31 07:57:45;;;;;;;;;;;;;;;;;;5042290;28;19931;-95
2021/07/31 08:00:14;;;;;;;;;;;;;;;;;;5023175;28;19931;-94
2021/07/31 08:02:43;;;;;;;;;;;;;;;;;;5035551;28;19925;-94
2021/07/31 08:05:13;;;;;;;;;;;;;;;;;;5027559;28;19929;-95
2021/07/31 08:07:43;;;;;;;;;;;;;;;;;;5027501;28;19914;-93
2021/07/31 08:10:12;;;;;;;;;;;;;;;;;;5039167;28;19925;-93
2021/07/31 08:12:42;;;;;;;;;;;;;;;;;;5038726;28;19909;-95
2021/07/31 08:15:10;;;;;;;;;;;;;;;;;;5054185;28;19923;-94
2021/07/31 08:17:39;;;;;;;;;;;;;;;;;;5035792;28;19913;-94
2021/07/31 08:20:07;;;;;;;;;;;;;;;;;;5032373;28;19935;-94
2021/07/31 08:22:36;;;;;;;;;;;;;;;;;;5047353;28;19917;-94
2021/07/31 08:25:07;;;;;;;;;;;;;;;;;;5033703;28;19913;-94
2021/07/31 08:27:36;;;;;;;;;;;;;;;;;;5038812;28;19934;-94
2021/07/31 08:30:07;;;;;;;;;;;;;;;;;;5052018;28;19933;-93
2021/07/31 08:32:36;;;;;;;;;;;;;;;;;;5039956;28;19925;-94
2021/07/31 08:35:04;;;;;;;;;;;;;;;;;;5046052;28;19925;-93
2021/07/31 08:37:36;;;;;;;;;;;;;;;;;;5023866;28;19933;-93
2021/07/31 08:40:07;;;;;;;;;;;;;;;;;;5037817;28;19940;-94
2021/07/31 08:42:36;;;;;;;;;;;;;;;;;;5021352;28;19925;-94
2021/07/31 08:45:05;;;;;;;;;;;;;;;;;;5023498;28;19940;-95
2021/07/31 08:47:35;;;;;;;;;;;;;;;;;;5025777;28;19925;-93
2021/07/31 08:50:04;;;;;;;;;;;;;;;;;;5024521;28;20407;-94
2021/07/31 08:52:33;;;;;;;;;;;;;;;;;;5042668;28;19915;-94
2021/07/31 08:55:02;;;;;;;;;;;;;;;;;;5033760;28;19932;-93
2021/07/31 08:57:30;;;;;;;;;;;;;;;;;;5047256;28;19926;-94
2021/07/31 08:59:59;;;;;;;;;;;;;;;;;;5030006;28;19929;-94
2021/07/31 09:02:49;;;;;;;;;;;;;;;;;;5024584;28;20546;-92
2021/07/31 09:13:00;;;;;;;;;;;;;;;;;;5008604;28;19937;-85
2021/07/31 09:15:29;;;;;;;;;;;;;;;;;;5030221;28;19925;-84
2021/07/31 09:18:02;;;;;;;;;;;;;;;;;;5011231;28;19933;-84
2021/07/31 09:20:30;;;;;;;;;;;;;;;;;;5012040;28;20407;-80
2021/07/31 09:22:59;;;;;;;;;;;;;;;;;;5025244;28;20302;-80
2021/07/31 09:25:27;;;;;;;;;;;;;;;;;;5027957;28;20004;-81
2021/07/31 09:27:56;;;;;;;;;;;;;;;;;;5014141;28;19933;-83
2021/07/31 09:30:25;;;;;;;;;;;;;;;;;;5031522;28;19933;-83
2021/07/31 09:32:54;;;;;;;;;;;;;;;;;;5016238;28;19932;-81
2021/07/31 09:35:22;;;;;;;;;;;;;;;;;;5009296;28;20314;-85
2021/07/31 09:37:51;;;;;;;;;;;;;;;;;;5023861;28;19925;-85
2021/07/31 09:40:29;;;;;;;;;;;;;;;;;;5009089;28;19925;-82
2021/07/31 09:42:57;;;;;;;;;;;;;;;;;;5005514;28;20307;-82
2021/07/31 09:45:34;;;;;;;;;;;;;;;;;;5032259;28;19925;-82
2021/07/31 09:48:02;;;;;;;;;;;;;;;;;;5013447;28;19925;-82
2021/07/31 09:50:38;;;;;;;;;;;;;;;;;;5046969;28;20220;-84
2021/07/31 09:53:08;;;;;;;;;;;;;;;;;;5027117;28;19933;-81
2021/07/31 09:55:37;;;;;;;;;;;;;;;;;;5029240;28;19933;-83
2021/07/31 09:58:05;;;;;;;;;;;;;;;;;;5064298;28;19922;-79
2021/07/31 10:00:35;;;;;;;;;;;;;;;;;;5050271;28;19925;-81
2021/07/31 10:03:04;;;;;;;;;;;;;;;;;;5022916;28;19929;-85
2021/07/31 10:05:33;;;;;;;;;;;;;;;;;;5032820;28;19925;-79
2021/07/31 10:08:01;;;;;;;;;;;;;;;;;;5035504;28;19925;-82
2021/07/31 10:10:30;;;;;;;;;;;;;;;;;;5051239;28;19937;-81
2021/07/31 10:13:00;;;;;;;;;;;;;;;;;;5047352;28;19929;-83
2021/07/31 10:15:28;;;;;;;;;;;;;;;;;;5036553;28;19952;-83
2021/07/31 10:17:58;;;;;;;;;;;;;;;;;;5036086;28;19925;-84
2021/07/31 10:20:27;;;;;;;;;;;;;;;;;;5035065;28;19925;-82
2021/07/31 10:22:56;;;;;;;;;;;;;;;;;;5058834;28;19932;-83
2021/07/31 10:25:25;;;;;;;;;;;;;;;;;;5022905;28;19940;-80
2021/07/31 10:27:54;;;;;;;;;;;;;;;;;;5017610;28;19929;-83
2021/07/31 10:30:27;;;;;;;;;;;;;;;;;;5034893;28;19944;-82
2021/07/31 10:32:55;;;;;;;;;;;;;;;;;;5031982;28;19921;-81
2021/07/31 10:35:26;;;;;;;;;;;;;;;;;;5026201;28;19937;-83
2021/07/31 10:37:55;;;;;;;;;;;;;;;;;;5048015;28;19929;-83
2021/07/31 10:40:23;;;;;;;;;;;;;;;;;;5044194;28;19925;-83
2021/07/31 10:43:06;;;;;;;;;;;;;;;;;;5033760;28;19933;-81
2021/07/31 10:45:35;;;;;;;;;;;;;;;;;;5016267;28;19925;-83
2021/07/31 10:48:05;;;;;;;;;;;;;;;;;;5037058;28;19934;-83
2021/07/31 10:50:40;;;;;;;;;;;;;;;;;;5036400;28;19936;-80
2021/07/31 10:53:10;;;;;;;;;;;;;;;;;;5033938;28;19933;-82
2021/07/31 10:55:56;;;;;;;;;;;;;;;;;;5031411;28;19925;-85
2021/07/31 10:58:24;;;;;;;;;;;;;;;;;;5011123;28;20395;-84
2021/07/31 11:00:53;;;;;;;;;;;;;;;;;;5013219;28;19929;-83
2021/07/31 11:03:41;;;;;;;;;;;;;;;;;;5033167;28;19925;-83
2021/07/31 11:06:12;;;;;;;;;;;;;;;;;;5015030;28;19925;-84
2021/07/31 11:08:55;;;;;;;;;;;;;;;;;;5046855;28;19933;-82
2021/07/31 11:11:24;;;;;;;;;;;;;;;;;;5033664;28;19932;-84
2021/07/31 11:13:53;;;;;;;;;;;;;;;;;;5035141;28;19944;-83
2021/07/31 11:16:22;;;;;;;;;;;;;;;;;;5016386;28;20028;-84
2021/07/31 11:18:52;;;;;;;;;;;;;;;;;;5015301;28;19925;-82
2021/07/31 11:21:22;;;;;;;;;;;;;;;;;;5013502;28;20133;-83
2021/07/31 11:23:52;;;;;;;;;;;;;;;;;;5025710;28;19932;-83
2021/07/31 11:26:31;;;;;;;;;;;;;;;;;;5033759;28;20307;-83
2021/07/31 11:29:00;;;;;;;;;;;;;;;;;;5027727;28;19925;-80
2021/07/31 11:31:28;;;;;;;;;;;;;;;;;;5018114;28;19925;-83
2021/07/31 11:33:58;;;;;;;;;;;;;;;;;;5015597;28;19948;-82
2021/07/31 11:36:27;;;;;;;;;;;;;;;;;;5031227;28;19929;-82
2021/07/31 11:38:56;;;;;;;;;;;;;;;;;;5028203;28;20434;-83
2021/07/31 11:41:24;;;;;;;;;;;;;;;;;;5014696;28;19929;-83
2021/07/31 11:43:53;;;;;;;;;;;;;;;;;;5033771;28;19933;-83
2021/07/31 11:46:28;;;;;;;;;;;;;;;;;;5012591;28;19933;-80
2021/07/31 11:48:58;;;;;;;;;;;;;;;;;;5012220;28;19933;-84
2021/07/31 11:51:27;;;;;;;;;;;;;;;;;;5023111;28;19929;-83
2021/07/31 11:53:56;;;;;;;;;;;;;;;;;;5028973;28;19929;-83
2021/07/31 11:56:25;;;;;;;;;;;;;;;;;;5047233;28;20228;-83
2021/07/31 11:58:54;;;;;;;;;;;;;;;;;;5031505;28;19929;-83
2021/07/31 12:01:22;;;;;;;;;;;;;;;;;;5045600;28;19925;-82
2021/07/31 12:03:51;;;;;;;;;;;;;;;;;;5029066;28;19925;-83
2021/07/31 12:06:34;;;;;;;;;;;;;;;;;;5018897;28;19925;-83
2021/07/31 12:09:03;;;;;;;;;;;;;;;;;;5008233;28;20379;-83
2021/07/31 12:11:35;;;;;;;;;;;;;;;;;;5029574;28;19936;-83
2021/07/31 12:14:18;;;;;;;;;;;;;;;;;;5027011;28;19933;-82
2021/07/31 12:16:46;;;;;;;;;;;;;;;;;;5050522;28;19929;-82
2021/07/31 12:19:15;;;;;;;;;;;;;;;;;;5019907;28;19933;-83
2021/07/31 12:21:45;;;;;;;;;;;;;;;;;;5053528;28;19932;-84
2021/07/31 12:24:17;;;;;;;;;;;;;;;;;;5029420;28;19925;-81
2021/07/31 12:26:51;;;;;;;;;;;;;;;;;;5026739;28;19940;-83
2021/07/31 12:29:37;;;;;;;;;;;;;;;;;;5012654;28;19925;-82
2021/07/31 12:32:24;;;;;;;;;;;;;;;;;;5012748;28;19932;-82
2021/07/31 12:34:53;;;;;;;;;;;;;;;;;;5030716;28;19933;-83
2021/07/31 12:37:23;;;;;;;;;;;;;;;;;;5028239;28;20410;-82
2021/07/31 12:39:51;;;;;;;;;;;;;;;;;;5013498;28;19932;-82
2021/07/31 12:42:20;;;;;;;;;;;;;;;;;;5028951;28;19926;-83
2021/07/31 12:44:48;;;;;;;;;;;;;;;;;;5032466;28;20391;-84
2021/07/31 12:47:17;;;;;;;;;;;;;;;;;;5047552;28;19929;-82
2021/07/31 12:49:46;;;;;;;;;;;;;;;;;;5030313;28;19926;-81
2021/07/31 12:52:14;;;;;;;;;;;;;;;;;;5061656;28;19913;-81
2021/07/31 12:54:43;;;;;;;;;;;;;;;;;;5066458;28;19925;-84
2021/07/31 12:57:12;;;;;;;;;;;;;;;;;;5021482;28;19929;-84
2021/07/31 12:59:40;;;;;;;;;;;;;;;;;;5016380;28;19925;-84
2021/07/31 13:02:19;;;;;;;;;;;;;;;;;;5028961;28;19955;-85
2021/07/31 13:04:47;;;;;;;;;;;;;;;;;;5013524;28;19926;-82
2021/07/31 13:07:16;;;;;;;;;;;;;;;;;;5022228;28;19924;-82
2021/07/31 13:09:45;;;;;;;;;;;;;;;;;;5026796;28;19930;-84
2021/07/31 13:12:14;;;;;;;;;;;;;;;;;;5024314;28;20012;-82
2021/07/31 13:14:42;;;;;;;;;;;;;;;;;;5031904;28;19996;-82
2021/07/31 13:17:11;;;;;;;;;;;;;;;;;;5030750;28;19932;-82
2021/07/31 13:19:39;;;;;;;;;;;;;;;;;;5027866;28;19929;-83
2021/07/31 13:22:08;;;;;;;;;;;;;;;;;;5034502;28;19926;-82
2021/07/31 13:24:36;;;;;;;;;;;;;;;;;;5038212;28;19929;-82
2021/07/31 13:27:06;;;;;;;;;;;;;;;;;;5031299;28;19925;-81
2021/07/31 13:29:34;;;;;;;;;;;;;;;;;;5030934;28;19925;-81
2021/07/31 13:32:03;;;;;;;;;;;;;;;;;;5034198;28;20410;-80
2021/07/31 13:34:32;;;;;;;;;;;;;;;;;;5018485;28;19954;-82
2021/07/31 13:37:01;;;;;;;;;;;;;;;;;;5011602;28;19929;-81
2021/07/31 13:39:32;;;;;;;;;;;;;;;;;;5015119;28;19940;-85
2021/07/31 13:42:00;;;;;;;;;;;;;;;;;;5029218;28;19926;-85
2021/07/31 13:44:30;;;;;;;;;;;;;;;;;;5032170;28;19925;-83
2021/07/31 13:46:58;;;;;;;;;;;;;;;;;;5017104;28;20370;-83
2021/07/31 13:49:27;;;;;;;;;;;;;;;;;;5049738;28;19925;-82
2021/07/31 13:51:55;;;;;;;;;;;;;;;;;;5016533;28;20021;-81
2021/07/31 13:54:31;;;;;;;;;;;;;;;;;;5025309;28;19926;-83
2021/07/31 13:57:00;;;;;;;;;;;;;;;;;;5020542;28;19932;-82
2021/07/31 13:59:29;;;;;;;;;;;;;;;;;;5028710;28;19940;-82
2021/07/31 14:01:58;;;;;;;;;;;;;;;;;;5033258;28;19933;-82
2021/07/31 14:04:26;;;;;;;;;;;;;;;;;;5033155;28;19968;-82
2021/07/31 14:06:55;;;;;;;;;;;;;;;;;;5016311;28;19925;-83
2021/07/31 14:09:23;;;;;;;;;;;;;;;;;;5026516;28;19925;-83
2021/07/31 14:11:51;;;;;;;;;;;;;;;;;;5032662;28;20390;-83
2021/07/31 14:14:19;;;;;;;;;;;;;;;;;;5035166;28;19925;-81
2021/07/31 14:16:49;;;;;;;;;;;;;;;;;;5013245;28;19929;-81
2021/07/31 14:19:18;;;;;;;;;;;;;;;;;;5015980;28;20230;-82
2021/07/31 14:21:46;;;;;;;;;;;;;;;;;;5033217;28;19925;-81
2021/07/31 14:24:14;;;;;;;;;;;;;;;;;;5005740;28;20303;-81
2021/07/31 14:26:43;;;;;;;;;;;;;;;;;;5030399;28;19929;-81
2021/07/31 14:29:11;;;;;;;;;;;;;;;;;;5011168;28;19929;-83
2021/07/31 14:31:40;;;;;;;;;;;;;;;;;;5031249;28;19925;-83
2021/07/31 14:34:09;;;;;;;;;;;;;;;;;;5021542;28;19944;-83
2021/07/31 14:36:39;;;;;;;;;;;;;;;;;;5019392;28;20280;-86
2021/07/31 14:39:07;;;;;;;;;;;;;;;;;;5021846;28;19933;-83
2021/07/31 14:41:35;;;;;;;;;;;;;;;;;;5029069;28;19933;-84
2021/07/31 14:44:04;;;;;;;;;;;;;;;;;;5032605;28;19925;-83
2021/07/31 14:46:32;;;;;;;;;;;;;;;;;;5016523;28;19925;-83
2021/07/31 14:49:00;;;;;;;;;;;;;;;;;;5017134;28;19924;-85
2021/07/31 14:51:30;;;;;;;;;;;;;;;;;;5013325;28;19933;-85
2021/07/31 14:53:58;;;;;;;;;;;;;;;;;;5040504;28;19925;-85
2021/07/31 14:56:26;;;;;;;;;;;;;;;;;;5016781;28;20316;-84
2021/07/31 14:58:55;;;;;;;;;;;;;;;;;;5014357;28;20413;-84
2021/07/31 15:01:23;;;;;;;;;;;;;;;;;;5034328;28;19933;-83
2021/07/31 15:03:52;;;;;;;;;;;;;;;;;;5041927;28;19930;-82
2021/07/31 15:06:20;;;;;;;;;;;;;;;;;;5024961;28;20183;-84
2021/07/31 15:08:49;;;;;;;;;;;;;;;;;;5036872;28;19913;-80
2021/07/31 15:11:18;;;;;;;;;;;;;;;;;;5037695;28;19933;-81
2021/07/31 15:13:46;;;;;;;;;;;;;;;;;;5038352;28;19913;-81
2021/07/31 15:16:15;;;;;;;;;;;;;;;;;;5054404;28;19980;-80
2021/07/31 15:18:43;;;;;;;;;;;;;;;;;;5032215;28;19932;-83
2021/07/31 15:21:13;;;;;;;;;;;;;;;;;;5017829;28;19925;-84
2021/07/31 15:23:42;;;;;;;;;;;;;;;;;;5037961;28;19933;-84
2021/07/31 15:26:12;;;;;;;;;;;;;;;;;;5034756;28;19925;-83
2021/07/31 15:28:41;;;;;;;;;;;;;;;;;;5031310;28;19925;-83
2021/07/31 15:31:11;;;;;;;;;;;;;;;;;;5031767;28;19940;-85
2021/07/31 15:33:39;;;;;;;;;;;;;;;;;;5034910;28;19931;-84
2021/07/31 15:36:07;;;;;;;;;;;;;;;;;;5032497;28;20303;-85
2021/07/31 15:38:35;;;;;;;;;;;;;;;;;;5035024;28;19925;-83
2021/07/31 15:41:04;;;;;;;;;;;;;;;;;;5032076;28;19932;-84
2021/07/31 15:43:33;;;;;;;;;;;;;;;;;;5021007;28;19925;-83
2021/07/31 15:46:02;;;;;;;;;;;;;;;;;;5066034;28;19925;-86
2021/07/31 15:48:30;;;;;;;;;;;;;;;;;;5053436;28;20314;-83
2021/07/31 15:50:58;;;;;;;;;;;;;;;;;;5031354;28;20314;-83
2021/07/31 15:53:27;;;;;;;;;;;;;;;;;;5032933;28;19929;-83
2021/07/31 15:55:59;;;;;;;;;;;;;;;;;;5032630;28;20339;-83
2021/07/31 15:58:28;;;;;;;;;;;;;;;;;;5021819;28;19940;-83
2021/07/31 16:00:58;;;;;;;;;;;;;;;;;;5018072;28;19925;-83
2021/07/31 16:03:27;;;;;;;;;;;;;;;;;;5033230;28;19925;-83
2021/07/31 16:05:55;;;;;;;;;;;;;;;;;;5035237;28;19925;-83
2021/07/31 16:08:23;;;;;;;;;;;;;;;;;;5033783;28;19926;-83
2021/07/31 16:10:51;;;;;;;;;;;;;;;;;;5016513;28;19925;-85
2021/07/31 16:13:20;;;;;;;;;;;;;;;;;;5050540;28;19932;-84
2021/07/31 16:15:48;;;;;;;;;;;;;;;;;;5050337;28;19925;-83
2021/07/31 16:18:18;;;;;;;;;;;;;;;;;;5028280;28;19933;-83
2021/07/31 16:20:47;;;;;;;;;;;;;;;;;;5031202;28;20279;-83
2021/07/31 16:23:15;;;;;;;;;;;;;;;;;;5012191;28;19929;-83
2021/07/31 16:25:44;;;;;;;;;;;;;;;;;;5021994;28;19952;-84
2021/07/31 16:28:12;;;;;;;;;;;;;;;;;;5036546;28;19936;-85
2021/07/31 16:30:40;;;;;;;;;;;;;;;;;;5034093;28;20413;-84
2021/07/31 16:33:09;;;;;;;;;;;;;;;;;;5017701;28;19925;-84
2021/07/31 16:35:39;;;;;;;;;;;;;;;;;;5049043;28;19925;-83
2021/07/31 16:38:07;;;;;;;;;;;;;;;;;;5034788;28;19932;-83
2021/07/31 16:40:35;;;;;;;;;;;;;;;;;;5016150;28;19934;-83
2021/07/31 16:43:03;;;;;;;;;;;;;;;;;;5033735;28;19932;-83
2021/07/31 16:45:31;;;;;;;;;;;;;;;;;;5018359;28;19929;-83
2021/07/31 16:48:00;;;;;;;;;;;;;;;;;;5025487;28;20379;-83
2021/07/31 16:50:29;;;;;;;;;;;;;;;;;;5033091;28;19932;-84
2021/07/31 16:52:59;;;;;;;;;;;;;;;;;;5029841;28;19925;-83
2021/07/31 16:55:27;;;;;;;;;;;;;;;;;;5034662;28;19936;-83
2021/07/31 16:57:56;;;;;;;;;;;;;;;;;;5034816;28;20153;-83
2021/07/31 17:00:24;;;;;;;;;;;;;;;;;;5017513;28;20315;-84
2021/07/31 17:02:52;;;;;;;;;;;;;;;;;;5014624;28;19933;-84
2021/07/31 17:05:21;;;;;;;;;;;;;;;;;;5005902;28;19933;-82
2021/07/31 17:07:49;;;;;;;;;;;;;;;;;;5028261;28;19929;-82
2021/07/31 17:10:19;;;;;;;;;;;;;;;;;;5041338;28;19929;-82
2021/07/31 17:12:47;;;;;;;;;;;;;;;;;;5017227;28;20357;-82